Time;durP1;ratioP1;P1;durP2;ratioP2;P2;SDS_P1;SDS_P2;PMS_P1;PMS_P2;Temp;Humidity;BMP_temperature;BMP_pressure;BME280_temperature;BME280_humidity;BME280_pressure;Samples;Min_cycle;Max_cycle;Signal;HPM_P1;HPM_P2
2021/12/21 00:00:34;;;;;;;9.50;5.63;;;-2.40;6.40;;;;;;5060264;28;20920;-63
2021/12/21 00:03:12;;;;;;;9.33;6.33;;;-2.40;1.00;;;;;;5060053;28;20493;-61
2021/12/21 00:05:40;;;;;;;9.20;5.93;;;-2.40;1.00;;;;;;5059704;28;20472;-62
2021/12/21 00:08:10;;;;;;;9.40;6.37;;;-2.40;1.00;;;;;;5060418;28;20910;-63
2021/12/21 00:10:38;;;;;;;8.83;6.30;;;-2.40;1.00;;;;;;5060210;28;20516;-63
2021/12/21 00:13:20;;;;;;;7.07;5.50;;;-2.50;1.00;;;;;;5060133;28;20508;-63
2021/12/21 00:15:55;;;;;;;10.63;6.00;;;-2.50;53.40;;;;;;5060502;28;20796;-62
2021/12/21 00:18:31;;;;;;;8.07;4.87;;;-2.50;1.00;;;;;;5059675;28;20496;-63
2021/12/21 00:21:05;;;;;;;14.80;6.13;;;-2.50;32.00;;;;;;5060366;28;20473;-62
2021/12/21 00:23:38;;;;;;;8.97;5.80;;;-2.50;1.00;;;;;;5059991;28;20450;-62
2021/12/21 00:26:08;;;;;;;8.67;6.33;;;-2.60;1.00;;;;;;5060503;28;20795;-62
2021/12/21 00:28:42;;;;;;;17.90;7.30;;;-2.60;99.90;;;;;;5060039;28;20519;-63
2021/12/21 00:31:10;;;;;;;11.70;7.30;;;-2.70;99.90;;;;;;5059264;28;20512;-60
2021/12/21 00:33:41;;;;;;;11.23;7.37;;;-2.70;1.00;;;;;;5056493;28;20471;-62
2021/12/21 00:36:09;;;;;;;14.80;9.27;;;-2.70;1.00;;;;;;5051301;28;20533;-61
2021/12/21 00:38:36;;;;;;;16.90;10.00;;;-2.50;96.50;;;;;;5060021;28;20441;-61
2021/12/21 00:41:04;;;;;;;12.70;7.20;;;-2.50;99.90;;;;;;5059186;28;20467;-63
2021/12/21 00:43:31;;;;;;;16.37;9.93;;;-2.60;99.90;;;;;;5059913;28;20547;-62
2021/12/21 00:45:58;;;;;;;10.93;7.53;;;-2.70;40.50;;;;;;5059484;28;20874;-62
2021/12/21 00:48:29;;;;;;;16.67;8.87;;;-2.70;13.60;;;;;;5064943;28;20454;-62
2021/12/21 00:50:57;;;;;;;13.30;8.17;;;-2.80;51.40;;;;;;5059963;28;20502;-63
2021/12/21 00:53:24;;;;;;;18.60;12.60;;;-2.70;99.90;;;;;;5059466;28;20525;-62
2021/12/21 00:55:54;;;;;;;17.40;10.67;;;-2.70;99.90;;;;;;5059950;28;20597;-62
2021/12/21 00:58:21;;;;;;;15.33;9.67;;;-2.70;1.00;;;;;;5059023;28;20461;-63
2021/12/21 01:00:48;;;;;;;27.60;16.57;;;-2.70;99.90;;;;;;5059021;28;20458;-63
2021/12/21 01:03:18;;;;;;;24.10;15.87;;;-2.60;11.70;;;;;;5058524;28;20497;-62
2021/12/21 01:05:53;;;;;;;20.80;12.30;;;-2.60;99.90;;;;;;5059303;28;20466;-62
2021/12/21 01:08:24;;;;;;;14.07;10.30;;;-2.70;99.90;;;;;;5058992;28;20866;-62
2021/12/21 01:11:09;;;;;;;14.90;9.20;;;-2.80;99.90;;;;;;5057322;28;20470;-62
2021/12/21 01:14:02;;;;;;;13.47;8.57;;;-2.90;99.90;;;;;;5059294;28;20456;-63
2021/12/21 01:16:38;;;;;;;10.83;8.10;;;-3.00;99.90;;;;;;5059587;28;20466;-62
2021/12/21 01:22:01;;;;;;;20.47;10.87;;;-3.00;1.00;;;;;;5055136;28;20459;-62
2021/12/21 01:27:23;;;;;;;27.77;16.03;;;-3.00;99.90;;;;;;5058516;28;20417;-62
2021/12/21 01:30:00;;;;;;;19.03;12.90;;;-2.90;1.00;;;;;;5059044;28;20516;-62
2021/12/21 01:32:41;;;;;;;14.80;9.47;;;-2.90;48.90;;;;;;5058949;28;20466;-62
2021/12/21 01:35:14;;;;;;;12.80;8.27;;;-3.00;21.20;;;;;;5058986;28;20437;-62
2021/12/21 01:37:53;;;;;;;12.50;7.40;;;-3.10;1.00;;;;;;5058995;28;20460;-62
2021/12/21 01:40:31;;;;;;;13.97;7.40;;;-3.20;1.00;;;;;;5059493;28;20462;-62
2021/12/21 01:43:18;;;;;;;11.77;8.37;;;-3.20;99.90;;;;;;5058606;28;20467;-62
2021/12/21 01:51:17;;;;;;;13.70;8.23;;;-3.30;99.90;;;;;;5069671;28;20453;-63
2021/12/21 01:53:46;;;;;;;14.27;7.90;;;-3.30;99.90;;;;;;5048663;28;20459;-62
2021/12/21 01:56:14;;;;;;;11.30;8.37;;;-3.30;99.90;;;;;;5058479;28;20817;-62
2021/12/21 01:58:42;;;;;;;10.03;7.20;;;-3.30;1.00;;;;;;5046445;28;20524;-62
2021/12/21 02:01:12;;;;;;;10.07;7.67;;;-3.40;1.00;;;;;;5042782;28;20575;-61
2021/12/21 02:03:41;;;;;;;13.00;7.87;;;-3.30;99.90;;;;;;5058692;28;20494;-61
2021/12/21 02:06:09;;;;;;;11.13;6.83;;;-3.40;1.00;;;;;;5038286;28;20540;-62
2021/12/21 02:08:36;;;;;;;13.33;7.00;;;-3.30;99.90;;;;;;5038117;28;20503;-62
2021/12/21 02:11:04;;;;;;;12.87;7.07;;;-3.30;1.00;;;;;;5038831;28;20796;-61
2021/12/21 02:13:36;;;;;;;9.97;6.90;;;-3.30;1.00;;;;;;5056983;28;20835;-61
2021/12/21 02:16:04;;;;;;;7.67;5.00;;;-3.40;99.90;;;;;;5057941;28;20929;-62
2021/12/21 02:18:49;;;;;;;10.23;5.50;;;-3.30;1.00;;;;;;5057805;28;20533;-62
2021/12/21 02:21:29;;;;;;;8.03;5.40;;;-3.40;1.00;;;;;;5058490;28;20568;-62
2021/12/21 02:24:02;;;;;;;9.10;5.33;;;-3.40;1.00;;;;;;5058561;28;20468;-61
2021/12/21 02:26:45;;;;;;;9.20;5.70;;;-3.40;31.60;;;;;;5058796;28;20472;-62
2021/12/21 02:29:16;;;;;;;8.97;5.50;;;-3.50;99.90;;;;;;5038967;28;20516;-62
2021/12/21 02:31:45;;;;;;;14.10;5.70;;;-3.50;10.80;;;;;;5053823;28;20473;-62
2021/12/21 02:34:13;;;;;;;9.30;5.40;;;-3.60;99.90;;;;;;5058511;28;20520;-62
2021/12/21 02:36:44;;;;;;;7.23;5.30;;;-3.50;1.00;;;;;;5058759;28;20921;-62
2021/12/21 02:39:15;;;;;;;7.27;5.70;;;-3.50;99.90;;;;;;5057897;28;20803;-62
2021/12/21 02:41:43;;;;;;;8.33;4.70;;;-3.50;99.90;;;;;;5058073;28;20441;-61
2021/12/21 02:44:11;;;;;;;8.00;4.40;;;-3.50;1.00;;;;;;5058076;28;20540;-62
2021/12/21 02:46:41;;;;;;;10.80;4.80;;;-3.50;1.00;;;;;;5058246;28;20469;-62
2021/12/21 02:49:13;;;;;;;7.23;4.70;;;-3.60;1.00;;;;;;5058670;28;20469;-62
2021/12/21 02:51:45;;;;;;;11.53;4.60;;;-3.60;99.90;;;;;;5058417;28;20524;-60
2021/12/21 02:54:16;;;;;;;10.43;5.27;;;-3.60;1.00;;;;;;5057515;28;20462;-62
2021/12/21 02:56:44;;;;;;;7.27;5.03;;;-3.70;1.00;;;;;;5058517;28;20466;-62
2021/12/21 02:59:11;;;;;;;8.50;5.90;;;-3.70;1.00;;;;;;5057672;28;20470;-60
2021/12/21 03:01:39;;;;;;;6.67;4.90;;;-3.70;1.00;;;;;;5057672;28;20458;-62
2021/12/21 03:04:07;;;;;;;10.27;5.57;;;-3.80;16.50;;;;;;5057800;28;21010;-62
2021/12/21 03:09:37;;;;;;;8.87;4.97;;;-3.80;1.00;;;;;;5045618;28;20528;-62
2021/12/21 03:12:15;;;;;;;8.47;4.83;;;-3.80;99.90;;;;;;5057784;28;20521;-63
2021/12/21 03:14:41;;;;;;;6.43;5.33;;;-3.70;99.90;;;;;;5058359;28;20494;-62
2021/12/21 03:17:10;;;;;;;8.27;6.30;;;-3.80;16.30;;;;;;5058449;28;20457;-63
2021/12/21 03:19:37;;;;;;;15.13;5.27;;;-3.80;1.00;;;;;;5056830;28;20489;-62
2021/12/21 03:22:05;;;;;;;8.80;5.00;;;-3.90;99.90;;;;;;5057571;28;20462;-62
2021/12/21 03:24:33;;;;;;;8.83;5.30;;;-3.70;1.00;;;;;;5057896;28;20467;-63
2021/12/21 03:27:01;;;;;;;8.67;5.47;;;-3.80;99.90;;;;;;5059437;28;20930;-62
2021/12/21 03:29:28;;;;;;;11.03;5.80;;;-3.70;1.00;;;;;;5060794;28;20519;-62
2021/12/21 03:31:56;;;;;;;9.63;4.93;;;-3.80;99.90;;;;;;5061075;28;20501;-62
2021/12/21 03:34:24;;;;;;;9.13;5.73;;;-3.90;99.90;;;;;;5060890;28;20469;-62
2021/12/21 03:36:51;;;;;;;7.80;5.20;;;-3.80;99.90;;;;;;5061979;28;20507;-61
2021/12/21 03:39:19;;;;;;;8.33;5.10;;;-3.90;1.00;;;;;;5060831;28;20536;-62
2021/12/21 03:41:53;;;;;;;9.70;5.73;;;-3.90;1.00;;;;;;5060760;28;20851;-60
2021/12/21 03:44:21;;;;;;;10.27;5.37;;;-3.90;99.90;;;;;;5060831;28;20489;-62
2021/12/21 03:46:51;;;;;;;7.83;5.30;;;-4.00;1.00;;;;;;5061580;28;20476;-62
2021/12/21 03:52:10;;;;;;;10.60;5.47;;;-4.00;1.00;;;;;;5046989;28;20728;-62
2021/12/21 03:54:39;;;;;;;8.10;5.97;;;-4.10;99.90;;;;;;5060694;28;20469;-62
2021/12/21 03:57:08;;;;;;;7.40;5.10;;;-4.10;1.00;;;;;;5060468;28;20923;-63
2021/12/21 03:59:41;;;;;;;8.33;5.80;;;-4.10;99.90;;;;;;5060849;28;20458;-62
2021/12/21 04:02:11;;;;;;;11.57;5.20;;;-4.00;99.90;;;;;;5058983;28;20915;-63
2021/12/21 04:04:38;;;;;;;7.83;5.87;;;-4.10;1.00;;;;;;5059997;28;20457;-63
2021/12/21 04:07:05;;;;;;;8.07;5.60;;;-4.00;99.90;;;;;;5059592;28;20444;-62
2021/12/21 04:09:32;;;;;;;9.80;5.90;;;-4.00;99.90;;;;;;5059646;28;20480;-62
2021/12/21 04:12:00;;;;;;;9.13;6.77;;;-4.00;95.50;;;;;;5059378;28;20451;-62
2021/12/21 04:14:29;;;;;;;9.00;6.60;;;-4.10;51.90;;;;;;5059291;28;20539;-62
2021/12/21 04:16:57;;;;;;;9.93;6.30;;;-4.20;96.30;;;;;;5058964;28;20810;-63
2021/12/21 04:19:27;;;;;;;8.53;6.53;;;-4.20;1.00;;;;;;5058794;28;20467;-63
2021/12/21 04:21:54;;;;;;;10.47;6.30;;;-4.10;1.00;;;;;;5059202;28;20436;-63
2021/12/21 04:24:21;;;;;;;8.27;6.20;;;-4.10;45.10;;;;;;5058767;28;20493;-63
2021/12/21 04:26:48;;;;;;;10.30;6.37;;;-4.10;99.90;;;;;;5059210;28;20440;-63
2021/12/21 04:29:16;;;;;;;7.87;5.50;;;-4.10;33.20;;;;;;5059624;28;20459;-63
2021/12/21 04:31:46;;;;;;;7.07;5.40;;;-4.10;99.90;;;;;;5059217;28;20466;-63
2021/12/21 04:34:14;;;;;;;9.10;5.07;;;-4.10;7.80;;;;;;5058505;28;20501;-63
2021/12/21 04:36:42;;;;;;;10.10;5.00;;;-4.20;50.30;;;;;;5059305;28;20469;-63
2021/12/21 04:39:19;;;;;;;7.33;4.70;;;-4.30;1.00;;;;;;5058620;28;20448;-63
2021/12/21 04:41:49;;;;;;;9.67;6.63;;;-4.30;1.00;;;;;;5059300;28;20488;-61
2021/12/21 04:44:16;;;;;;;10.70;5.10;;;-4.30;99.90;;;;;;5058385;28;20539;-63
2021/12/21 04:46:43;;;;;;;8.93;5.40;;;-4.30;78.00;;;;;;5058927;28;20462;-62
2021/12/21 04:49:13;;;;;;;9.60;6.10;;;-4.30;1.00;;;;;;5072437;28;20461;-63
2021/12/21 04:51:40;;;;;;;12.83;6.50;;;-4.30;1.00;;;;;;5078206;28;20488;-63
2021/12/21 04:54:08;;;;;;;9.83;6.40;;;-4.30;34.00;;;;;;5074239;28;20793;-62
2021/12/21 04:56:35;;;;;;;9.33;6.37;;;-4.40;99.90;;;;;;5058940;28;20516;-63
2021/12/21 04:59:02;;;;;;;13.87;6.97;;;-4.40;1.00;;;;;;5058438;28;20915;-63
2021/12/21 05:01:29;;;;;;;11.97;6.87;;;-4.40;99.90;;;;;;5058461;28;20587;-62
2021/12/21 05:03:56;;;;;;;10.60;6.20;;;-4.40;1.00;;;;;;5058237;28;20957;-63
2021/12/21 05:06:26;;;;;;;9.43;6.40;;;-4.40;99.90;;;;;;5057894;28;20465;-63
2021/12/21 05:09:05;;;;;;;9.63;6.10;;;-4.40;99.90;;;;;;5057967;28;20468;-63
2021/12/21 05:11:35;;;;;;;9.57;5.50;;;-4.50;99.90;;;;;;5058397;28;20793;-63
2021/12/21 05:14:07;;;;;;;7.03;5.30;;;-4.40;99.90;;;;;;5057984;28;20887;-63
2021/12/21 05:16:34;;;;;;;9.03;5.23;;;-4.40;1.00;;;;;;5057592;28;20477;-63
2021/12/21 05:19:02;;;;;;;7.30;5.17;;;-4.40;99.90;;;;;;5057583;28;20470;-61
2021/12/21 05:21:30;;;;;;;10.60;5.43;;;-4.40;88.10;;;;;;5057951;28;20865;-62
2021/12/21 05:23:57;;;;;;;8.90;4.60;;;-4.50;99.90;;;;;;5057527;28;20493;-63
2021/12/21 05:26:24;;;;;;;7.27;4.67;;;-4.50;1.00;;;;;;5057389;28;20807;-62
2021/12/21 05:28:52;;;;;;;8.70;6.50;;;-4.60;99.90;;;;;;5057546;28;20465;-63
2021/12/21 05:31:19;;;;;;;8.70;5.63;;;-4.60;1.00;;;;;;5057186;28;20488;-63
2021/12/21 05:33:50;;;;;;;7.50;5.33;;;-4.60;47.00;;;;;;5057373;28;20528;-63
2021/12/21 05:36:18;;;;;;;9.93;5.30;;;-4.60;99.90;;;;;;5056770;28;20448;-63
2021/12/21 05:38:49;;;;;;;8.70;6.13;;;-4.50;1.00;;;;;;5057554;28;20473;-63
2021/12/21 05:41:24;;;;;;;8.87;6.00;;;-4.50;1.00;;;;;;5057089;28;20504;-63
2021/12/21 05:43:52;;;;;;;8.27;5.60;;;-4.60;1.00;;;;;;5057175;28;20603;-63
2021/12/21 05:46:19;;;;;;;12.60;5.87;;;-4.70;99.90;;;;;;5057323;28;20493;-63
2021/12/21 05:48:48;;;;;;;10.87;6.07;;;-4.70;99.90;;;;;;5068464;28;20464;-63
2021/12/21 05:51:15;;;;;;;10.57;6.97;;;-4.60;1.00;;;;;;5057401;28;20524;-63
2021/12/21 05:53:42;;;;;;;10.13;7.10;;;-4.60;1.00;;;;;;5056303;28;20461;-63
2021/12/21 05:56:10;;;;;;;14.93;7.97;;;-4.60;1.00;;;;;;5064497;28;20464;-63
2021/12/21 05:58:38;;;;;;;12.87;7.13;;;-4.60;1.00;;;;;;5066281;28;20455;-63
2021/12/21 06:01:05;;;;;;;14.13;8.37;;;-4.60;1.00;;;;;;5065092;28;20466;-63
2021/12/21 06:03:32;;;;;;;12.67;8.50;;;-4.50;1.00;;;;;;5062313;28;20502;-63
2021/12/21 06:05:59;;;;;;;14.20;10.83;;;-4.50;1.00;;;;;;5056111;28;20804;-63
2021/12/21 06:08:26;;;;;;;17.70;10.03;;;-4.50;1.00;;;;;;5055779;28;20531;-63
2021/12/21 06:10:56;;;;;;;15.40;10.47;;;-4.50;1.00;;;;;;5055437;28;20476;-63
2021/12/21 06:13:47;;;;;;;20.07;12.07;;;-4.50;1.00;;;;;;5055895;28;20808;-63
2021/12/21 06:16:29;;;;;;;19.60;11.57;;;-4.50;99.90;;;;;;5041428;28;20967;-63
2021/12/21 06:27:13;;;;;;;13.23;7.23;;;-4.60;99.90;;;;;;5057549;28;20490;-63
2021/12/21 06:29:45;;;;;;;12.47;7.53;;;-4.60;1.00;;;;;;5054604;28;20466;-63
2021/12/21 06:32:13;;;;;;;16.10;9.50;;;-4.60;1.00;;;;;;5056259;28;20459;-63
2021/12/21 06:34:40;;;;;;;14.27;8.37;;;-4.60;99.90;;;;;;5056411;28;20465;-63
2021/12/21 06:37:09;;;;;;;14.70;8.77;;;-4.60;99.90;;;;;;5056203;28;20756;-63
2021/12/21 06:39:36;;;;;;;13.10;7.33;;;-4.60;1.00;;;;;;5056751;28;20466;-63
2021/12/21 06:42:04;;;;;;;11.33;6.83;;;-4.60;1.00;;;;;;5057034;28;20951;-63
2021/12/21 06:44:33;;;;;;;13.30;6.80;;;-4.60;99.90;;;;;;5056399;28;20489;-63
2021/12/21 06:51:08;;;;;;;10.50;6.33;;;-4.70;1.00;;;;;;5062509;28;20647;-63
2021/12/21 06:52:40;;;;;;;9.43;6.10;;;-4.60;1.00;;;;;;5052829;28;20468;-63
2021/12/21 06:55:08;;;;;;;10.73;6.70;;;-4.60;1.00;;;;;;5060766;28;20453;-63
2021/12/21 06:57:37;;;;;;;7.37;5.30;;;-4.60;99.90;;;;;;5054829;28;20454;-63
2021/12/21 07:00:07;;;;;;;14.20;5.60;;;-4.60;99.90;;;;;;5055132;28;20461;-63
2021/12/21 07:02:36;;;;;;;10.10;5.30;;;-4.20;99.90;;;;;;5057337;28;20799;-63
2021/12/21 07:05:04;;;;;;;7.90;5.37;;;-4.10;1.00;;;;;;5059253;28;20489;-63
2021/12/21 07:07:32;;;;;;;10.23;5.50;;;-4.40;89.50;;;;;;5059722;28;20915;-62
2021/12/21 07:10:02;;;;;;;9.20;5.30;;;-4.60;99.90;;;;;;5059480;28;20436;-61
2021/12/21 07:18:00;;;;;;;9.33;5.60;;;-4.60;1.00;;;;;;5059092;28;20472;-63
2021/12/21 07:18:12;;;;;;;9.17;5.10;;;-4.70;1.00;;;;;;5057489;28;20440;-63
2021/12/21 07:20:42;;;;;;;7.70;5.53;;;-4.80;1.00;;;;;;5059250;28;20518;-63
2021/12/21 07:23:09;;;;;;;9.30;6.03;;;-4.80;1.00;;;;;;5056596;28;20820;-62
2021/12/21 07:25:38;;;;;;;12.10;5.73;;;-4.80;99.90;;;;;;5060053;28;20461;-63
2021/12/21 07:28:07;;;;;;;10.60;5.30;;;-4.90;1.00;;;;;;5059257;28;20475;-63
2021/12/21 07:30:34;;;;;;;9.13;6.67;;;-5.00;1.00;;;;;;5060301;28;20472;-63
2021/12/21 07:33:03;;;;;;;6.70;5.33;;;-4.90;1.00;;;;;;5059442;28;20472;-63
2021/12/21 07:35:31;;;;;;;10.00;5.93;;;-4.90;1.00;;;;;;5059941;28;20457;-63
2021/12/21 07:38:00;;;;;;;9.47;6.30;;;-4.80;55.40;;;;;;5060181;28;20464;-62
2021/12/21 07:40:27;;;;;;;13.10;6.87;;;-4.80;1.00;;;;;;5058436;28;20811;-63
2021/12/21 07:43:00;;;;;;;9.40;7.17;;;-4.80;99.90;;;;;;5057825;28;20476;-62
2021/12/21 07:45:30;;;;;;;10.80;7.77;;;-4.80;99.90;;;;;;5058989;28;20951;-63
2021/12/21 07:48:00;;;;;;;14.87;8.00;;;-4.70;1.00;;;;;;5058549;28;20475;-63
2021/12/21 07:50:30;;;;;;;11.90;7.20;;;-4.80;1.00;;;;;;5058788;28;20454;-63
2021/12/21 07:53:01;;;;;;;13.60;7.63;;;-4.80;1.00;;;;;;5058471;28;20461;-63
2021/12/21 07:55:28;;;;;;;9.37;6.60;;;-4.80;1.00;;;;;;5059583;28;20511;-63
2021/12/21 07:57:59;;;;;;;13.00;6.70;;;-4.90;1.00;;;;;;5059197;28;20469;-63
2021/12/21 08:00:27;;;;;;;15.67;7.20;;;-4.70;1.00;;;;;;5059730;28;20515;-63
2021/12/21 08:03:06;;;;;;;24.07;13.20;;;-4.60;1.00;;;;;;5058805;28;20565;-63
2021/12/21 08:05:36;;;;;;;36.33;20.67;;;-4.60;99.90;;;;;;5059377;28;20557;-63
2021/12/21 08:08:11;;;;;;;76.37;38.77;;;-4.60;99.90;;;;;;5059429;28;20469;-61
2021/12/21 08:10:45;;;;;;;71.30;35.47;;;-4.40;99.90;;;;;;5059710;28;20476;-62
2021/12/21 08:13:13;;;;;;;80.43;40.27;;;-4.20;99.90;;;;;;5059037;28;20473;-61
2021/12/21 08:15:40;;;;;;;140.23;62.77;;;-3.80;99.90;;;;;;5058640;28;20527;-62
2021/12/21 08:18:07;;;;;;;112.77;50.97;;;-3.60;99.90;;;;;;5058844;28;20464;-62
2021/12/21 08:20:35;;;;;;;24.50;12.23;;;-3.30;99.90;;;;;;5060074;28;20527;-62
2021/12/21 08:23:05;;;;;;;17.23;10.07;;;-3.20;99.90;;;;;;5060967;28;20473;-62
2021/12/21 08:25:37;;;;;;;18.70;8.67;;;-3.00;1.00;;;;;;5060405;28;20496;-62
2021/12/21 08:28:06;;;;;;;17.30;11.70;;;-2.80;99.90;;;;;;5061575;28;20950;-62
2021/12/21 08:30:35;;;;;;;26.03;18.13;;;-2.60;99.90;;;;;;5061151;28;20494;-61
2021/12/21 08:33:03;;;;;;;29.50;21.20;;;-2.40;1.00;;;;;;5061873;28;20508;-62
2021/12/21 08:35:33;;;;;;;20.87;10.20;;;-2.20;2.30;;;;;;5061719;28;20871;-62
2021/12/21 08:38:05;;;;;;;10.37;6.30;;;-2.00;99.90;;;;;;5061285;28;20473;-62
2021/12/21 08:40:38;;;;;;;40.73;22.50;;;-1.90;99.90;;;;;;5061026;28;20466;-60
2021/12/21 08:43:12;;;;;;;17.30;10.27;;;-1.70;1.00;;;;;;5061980;28;20516;-62
2021/12/21 08:45:40;;;;;;;14.80;8.73;;;-1.50;99.90;;;;;;5060922;28;21002;-62
2021/12/21 08:48:08;;;;;;;49.63;29.57;;;-1.40;99.90;;;;;;5061383;28;20456;-61
2021/12/21 08:50:36;;;;;;;20.77;13.87;;;-1.40;1.00;;;;;;5061393;28;20462;-61
2021/12/21 08:53:04;;;;;;;27.00;15.37;;;-1.30;1.00;;;;;;5061161;28;20521;-60
2021/12/21 08:55:31;;;;;;;23.27;14.30;;;-1.10;99.90;;;;;;5059992;28;20458;-59
2021/12/21 08:57:58;;;;;;;33.30;18.70;;;-0.90;99.90;;;;;;5060990;28;20522;-60
2021/12/21 09:00:27;;;;;;;18.43;9.27;;;-0.70;99.90;;;;;;5060649;28;20885;-61
2021/12/21 09:02:54;;;;;;;12.10;6.77;;;-0.50;99.90;;;;;;5060736;28;20466;-58
2021/12/21 09:05:26;;;;;;;10.90;8.20;;;-0.20;99.90;;;;;;5060354;28;20495;-61
2021/12/21 09:07:54;;;;;;;14.37;9.73;;;0.00;99.90;;;;;;5059557;28;20839;-59
2021/12/21 09:10:23;;;;;;;18.97;9.80;;;0.00;1.00;;;;;;5060270;28;20472;-59
2021/12/21 09:12:50;;;;;;;11.90;8.40;;;-0.10;1.00;;;;;;5058324;28;20463;-57
2021/12/21 09:15:18;;;;;;;14.87;8.07;;;0.10;1.00;;;;;;5059380;28;20746;-59
2021/12/21 09:17:47;;;;;;;16.70;8.23;;;0.20;1.00;;;;;;5059627;28;20470;-60
2021/12/21 09:20:20;;;;;;;9.93;7.70;;;0.30;1.00;;;;;;5059579;28;20482;-61
2021/12/21 09:22:48;;;;;;;11.00;7.73;;;0.50;1.00;;;;;;5058635;28;20489;-60
2021/12/21 09:25:15;;;;;;;15.57;8.17;;;0.70;1.00;;;;;;5057708;28;20502;-58
2021/12/21 09:27:43;;;;;;;11.80;9.10;;;0.90;1.00;;;;;;5057347;28;20535;-60
2021/12/21 09:30:13;;;;;;;15.83;10.43;;;1.10;1.00;;;;;;5058048;28;20522;-57
2021/12/21 09:32:42;;;;;;;18.67;12.77;;;1.20;1.00;;;;;;5057559;28;20945;-59
2021/12/21 09:35:11;;;;;;;17.13;10.67;;;1.30;1.00;;;;;;5058162;28;20520;-56
2021/12/21 09:37:39;;;;;;;14.70;11.60;;;1.50;1.00;;;;;;5057019;28;20909;-58
2021/12/21 09:40:09;;;;;;;18.30;12.20;;;1.60;1.00;;;;;;5057710;28;20890;-57
2021/12/21 09:42:38;;;;;;;17.77;11.83;;;1.50;1.00;;;;;;5057890;28;20465;-59
2021/12/21 09:45:06;;;;;;;14.07;10.23;;;1.80;1.00;;;;;;5056737;28;20493;-56
2021/12/21 09:47:36;;;;;;;16.23;11.40;;;1.90;1.00;;;;;;5056698;28;20470;-56
2021/12/21 09:50:05;;;;;;;13.13;9.20;;;2.00;1.00;;;;;;5057379;28;20516;-56
2021/12/21 09:52:35;;;;;;;15.27;10.07;;;2.20;1.00;;;;;;5057304;28;20955;-54
2021/12/21 09:55:08;;;;;;;12.60;10.27;;;2.40;1.00;;;;;;5057417;28;20465;-54
2021/12/21 09:57:36;;;;;;;18.07;9.33;;;2.60;1.00;;;;;;5057095;28;20441;-59
2021/12/21 10:00:11;;;;;;;14.63;9.43;;;2.80;1.00;;;;;;5057155;28;20467;-59
2021/12/21 10:02:38;;;;;;;12.77;9.83;;;2.90;1.00;;;;;;5057729;28;20467;-58
2021/12/21 10:05:08;;;;;;;11.90;9.80;;;3.00;1.00;;;;;;5056486;28;20490;-58
2021/12/21 10:07:36;;;;;;;18.53;8.97;;;3.10;1.00;;;;;;5057125;28;20466;-59
2021/12/21 10:10:08;;;;;;;13.30;8.97;;;3.10;1.00;;;;;;5056602;28;20462;-59
2021/12/21 10:12:39;;;;;;;13.10;10.10;;;3.10;1.00;;;;;;5056954;28;20554;-60
2021/12/21 10:15:09;;;;;;;11.30;8.23;;;3.40;1.00;;;;;;5057583;28;20538;-59
2021/12/21 10:17:37;;;;;;;14.17;8.63;;;3.50;1.00;;;;;;5057286;28;20461;-59
2021/12/21 10:20:07;;;;;;;15.00;9.90;;;3.60;1.00;;;;;;5057378;28;20486;-60
2021/12/21 10:22:49;;;;;;;17.13;9.63;;;3.70;1.00;;;;;;5057270;28;20512;-61
2021/12/21 10:25:16;;;;;;;13.10;9.30;;;3.80;1.00;;;;;;5057060;28;20929;-59
2021/12/21 10:27:48;;;;;;;10.43;9.40;;;4.10;1.00;;;;;;5057038;28;20462;-59
2021/12/21 10:30:15;;;;;;;17.10;10.53;;;4.20;1.00;;;;;;5056796;28;20504;-61
2021/12/21 10:32:51;;;;;;;15.40;8.90;;;4.40;1.00;;;;;;5056876;28;20535;-60
2021/12/21 10:35:19;;;;;;;15.80;9.20;;;4.60;1.00;;;;;;5057569;28;20556;-61
2021/12/21 10:37:51;;;;;;;16.93;11.20;;;4.70;1.00;;;;;;5060116;28;20465;-60
2021/12/21 10:40:24;;;;;;;28.50;17.13;;;4.90;1.00;;;;;;5061233;28;20523;-60
2021/12/21 10:42:57;;;;;;;20.43;13.80;;;5.00;1.00;;;;;;5060954;28;20473;-61
2021/12/21 10:45:33;;;;;;;15.37;11.70;;;5.10;1.00;;;;;;5059966;28;20623;-61
2021/12/21 10:48:04;;;;;;;16.43;9.10;;;5.00;1.00;;;;;;5060641;28;20512;-61
2021/12/21 10:50:33;;;;;;;11.53;8.57;;;5.30;1.00;;;;;;5060428;28;20462;-60
2021/12/21 10:53:04;;;;;;;14.00;10.20;;;5.40;1.00;;;;;;5060381;28;20458;-61
2021/12/21 10:55:35;;;;;;;15.73;9.60;;;5.60;1.00;;;;;;5060488;28;20458;-60
2021/12/21 10:58:15;;;;;;;12.53;8.93;;;5.50;1.00;;;;;;5060101;28;20462;-61
2021/12/21 11:00:47;;;;;;;14.77;11.47;;;5.70;1.00;;;;;;5061059;28;20519;-61
2021/12/21 11:03:18;;;;;;;20.93;10.20;;;5.80;1.00;;;;;;5060415;28;20649;-61
2021/12/21 11:05:45;;;;;;;14.17;9.50;;;6.00;1.00;;;;;;5059718;28;20517;-61
2021/12/21 11:08:25;;;;;;;13.60;10.00;;;6.20;1.00;;;;;;5059828;28;20463;-58
2021/12/21 11:10:59;;;;;;;10.40;8.60;;;6.20;1.00;;;;;;5059643;28;20532;-61
2021/12/21 11:13:27;;;;;;;11.93;8.30;;;6.50;1.00;;;;;;5058537;28;20539;-61
2021/12/21 11:15:56;;;;;;;26.80;16.93;;;6.70;1.00;;;;;;5060375;28;20433;-61
2021/12/21 11:18:25;;;;;;;24.47;15.73;;;6.90;1.00;;;;;;5059172;28;20506;-61
2021/12/21 11:20:55;;;;;;;18.03;11.97;;;7.00;1.00;;;;;;5060330;28;20454;-60
2021/12/21 11:23:25;;;;;;;41.27;22.17;;;6.90;1.00;;;;;;5059753;28;20948;-60
2021/12/21 11:25:56;;;;;;;11.63;8.50;;;7.00;1.00;;;;;;5059673;28;20498;-58
2021/12/21 11:28:29;;;;;;;16.40;9.17;;;7.30;1.00;;;;;;5059856;28;20443;-59
2021/12/21 11:31:01;;;;;;;16.10;9.33;;;7.50;1.00;;;;;;5060226;28;20523;-58
2021/12/21 11:33:30;;;;;;;32.97;20.80;;;7.40;1.00;;;;;;5060150;28;20467;-60
2021/12/21 11:38:47;;;;;;;12.47;8.93;;;7.50;1.00;;;;;;5059700;28;20476;-60
2021/12/21 11:41:16;;;;;;;13.43;6.27;;;7.80;1.00;;;;;;5059972;28;20532;-58
2021/12/21 11:43:53;;;;;;;11.43;5.40;;;7.60;1.00;;;;;;5059658;28;20466;-57
2021/12/21 11:46:32;;;;;;;7.37;5.83;;;7.70;1.00;;;;;;5058748;28;20490;-59
2021/12/21 11:49:04;;;;;;;11.60;6.93;;;7.90;1.00;;;;;;5058475;28;20466;-59
2021/12/21 11:51:32;;;;;;;5.97;3.50;;;8.00;1.00;;;;;;5059652;28;20528;-59
2021/12/21 11:54:00;;;;;;;10.10;5.93;;;8.10;1.00;;;;;;5059360;28;20557;-59
2021/12/21 11:56:29;;;;;;;13.27;9.43;;;8.20;1.00;;;;;;5058816;28;20465;-60
2021/12/21 11:58:57;;;;;;;30.27;18.53;;;8.30;1.00;;;;;;5059018;28;20512;-58
2021/12/21 12:01:26;;;;;;;7.87;6.17;;;8.20;1.00;;;;;;5049513;28;20869;-53
2021/12/21 12:03:59;;;;;;;10.50;6.87;;;8.20;99.90;;;;;;5059348;28;20466;-57
2021/12/21 12:06:28;;;;;;;8.33;6.47;;;8.10;99.90;;;;;;5058782;28;20597;-57
2021/12/21 12:09:05;;;;;;;14.53;11.03;;;8.10;99.90;;;;;;5059412;28;20465;-57
2021/12/21 12:11:36;;;;;;;11.27;3.37;;;8.20;99.90;;;;;;5058391;28;20511;-56
2021/12/21 12:14:07;;;;;;;3.20;2.70;;;8.20;99.90;;;;;;5058466;28;20506;-60
2021/12/21 12:16:45;;;;;;;3.13;2.20;;;8.10;99.90;;;;;;5059216;28;20547;-60
2021/12/21 12:19:14;;;;;;;2.23;1.80;;;8.20;99.90;;;;;;5059364;28;20486;-57
2021/12/21 12:21:54;;;;;;;2.47;1.73;;;8.20;99.90;;;;;;5059005;28;20458;-54
2021/12/21 12:24:24;;;;;;;2.97;2.37;;;8.10;99.90;;;;;;5058072;28;20462;-58
2021/12/21 12:27:00;;;;;;;4.70;2.07;;;8.10;99.90;;;;;;5059026;28;20494;-59
2021/12/21 12:29:27;;;;;;;2.27;2.03;;;8.00;99.90;;;;;;5058909;28;20952;-56
2021/12/21 12:32:01;;;;;;;2.60;2.40;;;8.00;99.90;;;;;;5058898;28;20512;-57
2021/12/21 12:34:31;;;;;;;8.50;3.00;;;7.90;99.90;;;;;;5058132;28;20535;-57
2021/12/21 12:36:59;;;;;;;4.27;2.60;;;8.00;99.90;;;;;;5059159;28;20462;-57
2021/12/21 12:39:35;;;;;;;2.37;2.00;;;7.90;99.90;;;;;;5058212;28;20531;-58
2021/12/21 12:42:19;;;;;;;3.07;2.10;;;7.90;99.90;;;;;;5058761;28;20794;-57
2021/12/21 12:44:49;;;;;;;3.33;1.80;;;7.90;99.90;;;;;;5057988;28;20466;-55
2021/12/21 12:47:19;;;;;;;4.60;2.70;;;7.90;99.90;;;;;;5058427;28;20824;-56
2021/12/21 12:49:52;;;;;;;2.67;2.37;;;7.80;99.90;;;;;;5058018;28;20545;-58
2021/12/21 12:52:24;;;;;;;4.33;3.20;;;7.80;99.90;;;;;;5058768;28;20553;-53
2021/12/21 12:54:55;;;;;;;5.37;2.80;;;7.90;99.90;;;;;;5057062;28;20468;-55
2021/12/21 12:57:27;;;;;;;10.50;2.70;;;7.90;99.90;;;;;;5058511;28;20879;-55
2021/12/21 12:59:59;;;;;;;2.60;1.83;;;8.00;99.90;;;;;;5056680;28;20515;-58
2021/12/21 13:02:32;;;;;;;2.83;2.10;;;8.00;99.90;;;;;;5058397;28;20829;-58
2021/12/21 13:05:06;;;;;;;5.00;2.00;;;7.90;99.90;;;;;;5057260;28;20816;-58
2021/12/21 13:07:33;;;;;;;5.10;1.53;;;7.80;99.90;;;;;;5045631;28;20835;-60
2021/12/21 13:10:12;;;;;;;2.67;2.30;;;7.60;99.90;;;;;;5056364;28;20523;-58
2021/12/21 13:12:39;;;;;;;3.90;2.30;;;7.30;99.90;;;;;;5055159;28;20462;-59
2021/12/21 13:15:11;;;;;;;2.20;2.00;;;7.10;99.90;;;;;;5051654;28;20560;-60
2021/12/21 13:17:43;;;;;;;3.20;2.03;;;6.70;99.90;;;;;;5055566;28;20454;-58
2021/12/21 13:20:11;;;;;;;2.20;2.00;;;6.60;99.90;;;;;;5056991;28;20490;-59
2021/12/21 13:22:44;;;;;;;4.50;2.10;;;6.40;99.90;;;;;;5057805;28;20567;-58
2021/12/21 13:25:12;;;;;;;2.50;2.00;;;6.20;99.90;;;;;;5050732;28;20829;-60
2021/12/21 13:27:44;;;;;;;2.20;1.70;;;5.90;99.90;;;;;;5047927;28;20524;-58
2021/12/21 13:30:12;;;;;;;2.43;1.77;;;5.60;99.90;;;;;;5053527;28;20465;-57
2021/12/21 13:32:41;;;;;;;2.77;1.90;;;5.40;99.90;;;;;;5046327;28;20470;-60
2021/12/21 13:35:09;;;;;;;3.57;2.00;;;5.20;99.90;;;;;;5038103;28;20459;-60
2021/12/21 13:37:36;;;;;;;2.70;2.30;;;5.00;99.90;;;;;;5051283;28;20463;-60